sensor_id;sensor_type;location;lat;lon;timestamp;P1;durP1;ratioP1;P2;durP2;ratioP2
5135;SDS011;2586;48.710;9.202;2023-01-08T00:01:58;9.60;;;5.70;;
5135;SDS011;2586;48.710;9.202;2023-01-08T00:04:24;8.47;;;6.13;;
5135;SDS011;2586;48.710;9.202;2023-01-08T00:06:49;8.07;;;5.80;;
5135;SDS011;2586;48.710;9.202;2023-01-08T00:09:15;9.43;;;6.10;;
5135;SDS011;2586;48.710;9.202;2023-01-08T00:11:40;13.53;;;6.83;;
5135;SDS011;2586;48.710;9.202;2023-01-08T00:14:08;11.93;;;5.93;;
5135;SDS011;2586;48.710;9.202;2023-01-08T00:16:34;7.70;;;5.60;;
5135;SDS011;2586;48.710;9.202;2023-01-08T00:19:00;7.30;;;5.17;;
5135;SDS011;2586;48.710;9.202;2023-01-08T00:21:25;6.97;;;5.57;;
5135;SDS011;2586;48.710;9.202;2023-01-08T00:23:52;9.40;;;6.10;;
5135;SDS011;2586;48.710;9.202;2023-01-08T00:26:17;8.47;;;6.13;;
5135;SDS011;2586;48.710;9.202;2023-01-08T00:28:43;11.87;;;7.07;;
5135;SDS011;2586;48.710;9.202;2023-01-08T00:31:09;6.33;;;5.70;;
5135;SDS011;2586;48.710;9.202;2023-01-08T00:33:36;9.53;;;6.30;;
5135;SDS011;2586;48.710;9.202;2023-01-08T00:36:10;7.10;;;6.40;;
5135;SDS011;2586;48.710;9.202;2023-01-08T00:38:38;8.10;;;5.53;;
5135;SDS011;2586;48.710;9.202;2023-01-08T00:41:03;7.87;;;5.80;;
5135;SDS011;2586;48.710;9.202;2023-01-08T00:43:29;5.90;;;5.10;;
5135;SDS011;2586;48.710;9.202;2023-01-08T00:45:55;12.07;;;6.30;;
5135;SDS011;2586;48.710;9.202;2023-01-08T00:48:21;10.40;;;6.90;;
5135;SDS011;2586;48.710;9.202;2023-01-08T00:50:50;12.33;;;8.40;;
5135;SDS011;2586;48.710;9.202;2023-01-08T00:53:17;9.90;;;6.90;;
5135;SDS011;2586;48.710;9.202;2023-01-08T00:55:44;8.83;;;6.63;;
5135;SDS011;2586;48.710;9.202;2023-01-08T00:58:10;7.57;;;6.03;;
5135;SDS011;2586;48.710;9.202;2023-01-08T01:00:36;12.23;;;6.17;;
5135;SDS011;2586;48.710;9.202;2023-01-08T01:03:01;9.30;;;6.00;;
5135;SDS011;2586;48.710;9.202;2023-01-08T01:05:27;13.20;;;6.30;;
5135;SDS011;2586;48.710;9.202;2023-01-08T01:07:53;8.37;;;6.10;;
5135;SDS011;2586;48.710;9.202;2023-01-08T01:10:18;6.73;;;5.43;;
5135;SDS011;2586;48.710;9.202;2023-01-08T01:12:44;9.13;;;5.50;;
5135;SDS011;2586;48.710;9.202;2023-01-08T01:15:11;10.10;;;6.27;;
5135;SDS011;2586;48.710;9.202;2023-01-08T01:17:39;10.17;;;6.00;;
5135;SDS011;2586;48.710;9.202;2023-01-08T01:20:06;9.57;;;7.07;;
5135;SDS011;2586;48.710;9.202;2023-01-08T01:22:33;10.80;;;6.60;;
5135;SDS011;2586;48.710;9.202;2023-01-08T01:24:58;8.20;;;6.43;;
5135;SDS011;2586;48.710;9.202;2023-01-08T01:27:24;15.70;;;5.87;;
5135;SDS011;2586;48.710;9.202;2023-01-08T01:29:51;9.33;;;6.73;;
5135;SDS011;2586;48.710;9.202;2023-01-08T01:32:17;7.07;;;6.03;;
5135;SDS011;2586;48.710;9.202;2023-01-08T01:34:43;13.27;;;7.03;;
5135;SDS011;2586;48.710;9.202;2023-01-08T01:37:12;9.67;;;6.73;;
5135;SDS011;2586;48.710;9.202;2023-01-08T01:39:38;9.53;;;7.50;;
5135;SDS011;2586;48.710;9.202;2023-01-08T01:42:04;16.43;;;7.97;;
5135;SDS011;2586;48.710;9.202;2023-01-08T01:47:03;11.97;;;8.10;;
5135;SDS011;2586;48.710;9.202;2023-01-08T01:49:49;11.63;;;7.83;;
5135;SDS011;2586;48.710;9.202;2023-01-08T01:52:29;10.93;;;7.27;;
5135;SDS011;2586;48.710;9.202;2023-01-08T01:54:58;9.90;;;6.73;;
5135;SDS011;2586;48.710;9.202;2023-01-08T01:57:26;11.00;;;7.33;;
5135;SDS011;2586;48.710;9.202;2023-01-08T01:59:53;8.97;;;7.97;;
5135;SDS011;2586;48.710;9.202;2023-01-08T02:02:21;10.40;;;7.37;;
5135;SDS011;2586;48.710;9.202;2023-01-08T02:04:47;10.50;;;7.37;;
5135;SDS011;2586;48.710;9.202;2023-01-08T02:07:17;9.40;;;7.90;;
5135;SDS011;2586;48.710;9.202;2023-01-08T02:09:59;15.37;;;7.37;;
5135;SDS011;2586;48.710;9.202;2023-01-08T02:12:36;10.60;;;7.60;;
5135;SDS011;2586;48.710;9.202;2023-01-08T02:18:09;10.13;;;6.80;;
5135;SDS011;2586;48.710;9.202;2023-01-08T02:20:44;12.30;;;7.47;;
5135;SDS011;2586;48.710;9.202;2023-01-08T02:23:26;11.50;;;8.33;;
5135;SDS011;2586;48.710;9.202;2023-01-08T02:28:31;12.23;;;7.33;;
5135;SDS011;2586;48.710;9.202;2023-01-08T02:31:01;9.37;;;6.93;;
5135;SDS011;2586;48.710;9.202;2023-01-08T02:33:28;10.07;;;7.57;;
5135;SDS011;2586;48.710;9.202;2023-01-08T02:36:16;9.60;;;6.70;;
5135;SDS011;2586;48.710;9.202;2023-01-08T02:41:41;9.67;;;6.77;;
5135;SDS011;2586;48.710;9.202;2023-01-08T02:44:16;9.40;;;6.73;;
5135;SDS011;2586;48.710;9.202;2023-01-08T02:46:48;12.57;;;8.20;;
5135;SDS011;2586;48.710;9.202;2023-01-08T02:49:15;10.13;;;7.30;;
5135;SDS011;2586;48.710;9.202;2023-01-08T02:51:44;8.87;;;7.00;;
5135;SDS011;2586;48.710;9.202;2023-01-08T02:54:19;8.60;;;6.83;;
5135;SDS011;2586;48.710;9.202;2023-01-08T02:56:51;12.87;;;6.67;;
5135;SDS011;2586;48.710;9.202;2023-01-08T02:59:21;9.03;;;7.13;;
5135;SDS011;2586;48.710;9.202;2023-01-08T03:01:48;9.67;;;6.97;;
5135;SDS011;2586;48.710;9.202;2023-01-08T03:04:18;11.63;;;7.73;;
5135;SDS011;2586;48.710;9.202;2023-01-08T03:06:45;9.83;;;7.03;;
5135;SDS011;2586;48.710;9.202;2023-01-08T03:09:11;12.60;;;7.90;;
5135;SDS011;2586;48.710;9.202;2023-01-08T03:14:15;13.10;;;8.20;;
5135;SDS011;2586;48.710;9.202;2023-01-08T03:16:53;24.30;;;8.47;;
5135;SDS011;2586;48.710;9.202;2023-01-08T03:19:28;10.20;;;7.80;;
5135;SDS011;2586;48.710;9.202;2023-01-08T03:21:59;10.47;;;6.93;;
5135;SDS011;2586;48.710;9.202;2023-01-08T03:24:30;12.53;;;8.90;;
5135;SDS011;2586;48.710;9.202;2023-01-08T03:26:59;16.13;;;7.70;;
5135;SDS011;2586;48.710;9.202;2023-01-08T03:29:28;11.00;;;8.00;;
5135;SDS011;2586;48.710;9.202;2023-01-08T03:31:55;12.67;;;8.50;;
5135;SDS011;2586;48.710;9.202;2023-01-08T03:34:25;9.47;;;7.37;;
5135;SDS011;2586;48.710;9.202;2023-01-08T03:36:56;10.00;;;7.80;;
5135;SDS011;2586;48.710;9.202;2023-01-08T03:41:54;14.40;;;7.57;;
5135;SDS011;2586;48.710;9.202;2023-01-08T03:44:24;12.00;;;8.10;;
5135;SDS011;2586;48.710;9.202;2023-01-08T03:46:51;11.60;;;8.47;;
5135;SDS011;2586;48.710;9.202;2023-01-08T03:49:18;11.33;;;7.87;;
5135;SDS011;2586;48.710;9.202;2023-01-08T03:51:46;10.67;;;8.07;;
5135;SDS011;2586;48.710;9.202;2023-01-08T03:54:13;13.07;;;6.70;;
5135;SDS011;2586;48.710;9.202;2023-01-08T03:56:40;9.50;;;7.90;;
5135;SDS011;2586;48.710;9.202;2023-01-08T03:59:06;9.90;;;7.63;;
5135;SDS011;2586;48.710;9.202;2023-01-08T04:01:32;11.03;;;7.20;;
5135;SDS011;2586;48.710;9.202;2023-01-08T04:03:58;14.23;;;8.00;;
5135;SDS011;2586;48.710;9.202;2023-01-08T04:06:23;9.60;;;7.67;;
5135;SDS011;2586;48.710;9.202;2023-01-08T04:08:49;10.73;;;7.07;;
5135;SDS011;2586;48.710;9.202;2023-01-08T04:11:15;11.00;;;8.40;;
5135;SDS011;2586;48.710;9.202;2023-01-08T04:13:40;11.40;;;8.00;;
5135;SDS011;2586;48.710;9.202;2023-01-08T04:16:06;23.10;;;7.70;;
5135;SDS011;2586;48.710;9.202;2023-01-08T04:18:32;10.83;;;7.73;;
5135;SDS011;2586;48.710;9.202;2023-01-08T04:20:58;13.70;;;6.87;;
5135;SDS011;2586;48.710;9.202;2023-01-08T04:23:23;8.40;;;6.60;;
5135;SDS011;2586;48.710;9.202;2023-01-08T04:25:50;16.43;;;7.33;;
5135;SDS011;2586;48.710;9.202;2023-01-08T04:28:16;13.03;;;6.63;;
5135;SDS011;2586;48.710;9.202;2023-01-08T04:30:41;7.03;;;6.17;;
5135;SDS011;2586;48.710;9.202;2023-01-08T04:33:07;9.33;;;7.20;;
5135;SDS011;2586;48.710;9.202;2023-01-08T04:35:33;10.57;;;7.43;;
5135;SDS011;2586;48.710;9.202;2023-01-08T04:37:58;10.57;;;7.37;;
5135;SDS011;2586;48.710;9.202;2023-01-08T04:40:24;8.00;;;7.17;;
5135;SDS011;2586;48.710;9.202;2023-01-08T04:42:49;9.63;;;7.63;;
5135;SDS011;2586;48.710;9.202;2023-01-08T04:45:15;12.20;;;8.10;;
5135;SDS011;2586;48.710;9.202;2023-01-08T04:47:41;12.90;;;8.43;;
5135;SDS011;2586;48.710;9.202;2023-01-08T04:50:06;9.43;;;7.37;;
5135;SDS011;2586;48.710;9.202;2023-01-08T04:52:32;13.23;;;8.10;;
5135;SDS011;2586;48.710;9.202;2023-01-08T04:54:58;8.33;;;4.17;;
5135;SDS011;2586;48.710;9.202;2023-01-08T04:57:23;6.23;;;3.60;;
5135;SDS011;2586;48.710;9.202;2023-01-08T04:59:49;2.60;;;2.40;;
5135;SDS011;2586;48.710;9.202;2023-01-08T05:02:14;3.87;;;1.97;;
5135;SDS011;2586;48.710;9.202;2023-01-08T05:04:40;2.03;;;1.60;;
5135;SDS011;2586;48.710;9.202;2023-01-08T05:07:05;1.63;;;1.43;;
5135;SDS011;2586;48.710;9.202;2023-01-08T05:09:31;2.40;;;1.57;;
5135;SDS011;2586;48.710;9.202;2023-01-08T05:11:57;3.00;;;1.50;;
5135;SDS011;2586;48.710;9.202;2023-01-08T05:14:23;4.10;;;1.80;;
5135;SDS011;2586;48.710;9.202;2023-01-08T05:16:49;1.80;;;1.70;;
5135;SDS011;2586;48.710;9.202;2023-01-08T05:19:14;1.13;;;1.03;;
5135;SDS011;2586;48.710;9.202;2023-01-08T05:21:40;1.87;;;1.30;;
5135;SDS011;2586;48.710;9.202;2023-01-08T05:24:05;2.60;;;1.30;;
5135;SDS011;2586;48.710;9.202;2023-01-08T05:26:33;1.17;;;1.07;;
5135;SDS011;2586;48.710;9.202;2023-01-08T05:28:58;1.30;;;1.20;;
5135;SDS011;2586;48.710;9.202;2023-01-08T05:31:24;2.20;;;1.10;;
5135;SDS011;2586;48.710;9.202;2023-01-08T05:33:50;1.67;;;1.43;;
5135;SDS011;2586;48.710;9.202;2023-01-08T05:36:15;1.23;;;1.10;;
5135;SDS011;2586;48.710;9.202;2023-01-08T05:38:41;1.37;;;1.10;;
5135;SDS011;2586;48.710;9.202;2023-01-08T05:41:06;1.60;;;1.50;;
5135;SDS011;2586;48.710;9.202;2023-01-08T05:43:33;1.30;;;1.10;;
5135;SDS011;2586;48.710;9.202;2023-01-08T05:46:00;0.90;;;0.90;;
5135;SDS011;2586;48.710;9.202;2023-01-08T05:48:27;1.20;;;1.10;;
5135;SDS011;2586;48.710;9.202;2023-01-08T05:50:53;1.37;;;1.27;;
5135;SDS011;2586;48.710;9.202;2023-01-08T05:53:18;1.73;;;1.60;;
5135;SDS011;2586;48.710;9.202;2023-01-08T05:55:44;2.50;;;0.90;;
5135;SDS011;2586;48.710;9.202;2023-01-08T05:58:10;1.03;;;1.03;;
5135;SDS011;2586;48.710;9.202;2023-01-08T06:00:36;1.10;;;1.10;;
5135;SDS011;2586;48.710;9.202;2023-01-08T06:03:02;1.80;;;1.63;;
5135;SDS011;2586;48.710;9.202;2023-01-08T06:05:29;1.30;;;1.20;;
5135;SDS011;2586;48.710;9.202;2023-01-08T06:07:56;6.23;;;1.27;;
5135;SDS011;2586;48.710;9.202;2023-01-08T06:10:22;1.57;;;1.13;;
5135;SDS011;2586;48.710;9.202;2023-01-08T06:12:48;1.40;;;1.23;;
5135;SDS011;2586;48.710;9.202;2023-01-08T06:15:13;2.20;;;1.03;;
5135;SDS011;2586;48.710;9.202;2023-01-08T06:17:39;1.20;;;1.13;;
5135;SDS011;2586;48.710;9.202;2023-01-08T06:20:05;2.43;;;1.80;;
5135;SDS011;2586;48.710;9.202;2023-01-08T06:22:31;6.20;;;1.33;;
5135;SDS011;2586;48.710;9.202;2023-01-08T06:24:57;2.20;;;0.90;;
5135;SDS011;2586;48.710;9.202;2023-01-08T06:27:23;2.13;;;1.17;;
5135;SDS011;2586;48.710;9.202;2023-01-08T06:29:48;3.90;;;1.30;;
5135;SDS011;2586;48.710;9.202;2023-01-08T06:32:14;1.57;;;1.10;;
5135;SDS011;2586;48.710;9.202;2023-01-08T06:34:39;1.30;;;1.20;;
5135;SDS011;2586;48.710;9.202;2023-01-08T06:37:05;0.70;;;0.70;;
5135;SDS011;2586;48.710;9.202;2023-01-08T06:39:31;0.83;;;0.83;;
5135;SDS011;2586;48.710;9.202;2023-01-08T06:41:56;1.00;;;1.00;;
5135;SDS011;2586;48.710;9.202;2023-01-08T06:44:22;0.80;;;0.80;;
5135;SDS011;2586;48.710;9.202;2023-01-08T06:46:47;0.93;;;0.93;;
5135;SDS011;2586;48.710;9.202;2023-01-08T06:49:13;0.80;;;0.70;;
5135;SDS011;2586;48.710;9.202;2023-01-08T06:51:38;0.90;;;0.90;;
5135;SDS011;2586;48.710;9.202;2023-01-08T06:54:04;0.80;;;0.80;;
5135;SDS011;2586;48.710;9.202;2023-01-08T06:56:30;2.30;;;0.90;;
5135;SDS011;2586;48.710;9.202;2023-01-08T06:58:55;0.80;;;0.70;;
5135;SDS011;2586;48.710;9.202;2023-01-08T07:01:21;2.03;;;0.70;;
5135;SDS011;2586;48.710;9.202;2023-01-08T07:03:47;1.10;;;1.10;;
5135;SDS011;2586;48.710;9.202;2023-01-08T07:06:16;1.13;;;1.03;;
5135;SDS011;2586;48.710;9.202;2023-01-08T07:08:43;0.60;;;0.60;;
5135;SDS011;2586;48.710;9.202;2023-01-08T07:11:09;0.80;;;0.80;;
5135;SDS011;2586;48.710;9.202;2023-01-08T07:13:35;1.07;;;1.07;;
5135;SDS011;2586;48.710;9.202;2023-01-08T07:16:04;1.00;;;0.90;;
5135;SDS011;2586;48.710;9.202;2023-01-08T07:18:33;2.87;;;1.30;;
5135;SDS011;2586;48.710;9.202;2023-01-08T07:21:00;0.90;;;0.90;;
5135;SDS011;2586;48.710;9.202;2023-01-08T07:23:30;2.40;;;2.20;;
5135;SDS011;2586;48.710;9.202;2023-01-08T07:26:02;2.30;;;0.80;;
5135;SDS011;2586;48.710;9.202;2023-01-08T07:28:29;0.50;;;0.50;;
5135;SDS011;2586;48.710;9.202;2023-01-08T07:30:55;0.93;;;0.70;;
5135;SDS011;2586;48.710;9.202;2023-01-08T07:33:21;0.97;;;0.97;;
5135;SDS011;2586;48.710;9.202;2023-01-08T07:35:50;1.47;;;0.93;;
5135;SDS011;2586;48.710;9.202;2023-01-08T07:38:17;5.70;;;0.93;;
5135;SDS011;2586;48.710;9.202;2023-01-08T07:40:42;0.83;;;0.83;;
5135;SDS011;2586;48.710;9.202;2023-01-08T07:43:08;0.87;;;0.80;;
5135;SDS011;2586;48.710;9.202;2023-01-08T07:45:36;2.30;;;0.93;;
5135;SDS011;2586;48.710;9.202;2023-01-08T07:48:02;2.10;;;0.80;;
5135;SDS011;2586;48.710;9.202;2023-01-08T07:50:27;0.70;;;0.70;;
5135;SDS011;2586;48.710;9.202;2023-01-08T07:52:59;0.90;;;0.87;;
5135;SDS011;2586;48.710;9.202;2023-01-08T07:55:25;1.60;;;0.60;;
5135;SDS011;2586;48.710;9.202;2023-01-08T07:57:52;1.20;;;1.20;;
5135;SDS011;2586;48.710;9.202;2023-01-08T08:00:18;1.20;;;1.00;;
5135;SDS011;2586;48.710;9.202;2023-01-08T08:02:45;1.80;;;1.00;;
5135;SDS011;2586;48.710;9.202;2023-01-08T08:05:10;1.37;;;0.70;;
5135;SDS011;2586;48.710;9.202;2023-01-08T08:07:36;0.70;;;0.70;;
5135;SDS011;2586;48.710;9.202;2023-01-08T08:10:02;0.80;;;0.80;;
5135;SDS011;2586;48.710;9.202;2023-01-08T08:12:28;3.33;;;0.80;;
5135;SDS011;2586;48.710;9.202;2023-01-08T08:14:54;0.90;;;0.90;;
5135;SDS011;2586;48.710;9.202;2023-01-08T08:17:20;4.73;;;0.73;;
5135;SDS011;2586;48.710;9.202;2023-01-08T08:19:45;0.80;;;0.80;;
5135;SDS011;2586;48.710;9.202;2023-01-08T08:22:11;2.30;;;0.70;;
5135;SDS011;2586;48.710;9.202;2023-01-08T08:24:37;1.40;;;0.80;;
5135;SDS011;2586;48.710;9.202;2023-01-08T08:27:03;1.33;;;1.00;;
5135;SDS011;2586;48.710;9.202;2023-01-08T08:29:28;1.30;;;1.20;;
5135;SDS011;2586;48.710;9.202;2023-01-08T08:31:54;1.60;;;1.50;;
5135;SDS011;2586;48.710;9.202;2023-01-08T08:34:19;6.37;;;3.77;;
5135;SDS011;2586;48.710;9.202;2023-01-08T08:36:46;2.43;;;1.67;;
5135;SDS011;2586;48.710;9.202;2023-01-08T08:39:15;3.90;;;2.27;;
5135;SDS011;2586;48.710;9.202;2023-01-08T08:41:41;2.00;;;1.63;;
5135;SDS011;2586;48.710;9.202;2023-01-08T08:44:06;3.07;;;2.10;;
5135;SDS011;2586;48.710;9.202;2023-01-08T08:46:32;2.47;;;1.70;;
5135;SDS011;2586;48.710;9.202;2023-01-08T08:48:58;8.90;;;3.80;;
5135;SDS011;2586;48.710;9.202;2023-01-08T08:51:24;2.97;;;2.43;;
5135;SDS011;2586;48.710;9.202;2023-01-08T08:53:49;5.40;;;2.40;;
5135;SDS011;2586;48.710;9.202;2023-01-08T08:56:15;1.50;;;1.40;;
5135;SDS011;2586;48.710;9.202;2023-01-08T08:58:40;4.30;;;2.00;;
5135;SDS011;2586;48.710;9.202;2023-01-08T09:01:06;1.60;;;1.50;;
5135;SDS011;2586;48.710;9.202;2023-01-08T09:03:32;2.50;;;1.33;;
5135;SDS011;2586;48.710;9.202;2023-01-08T09:05:58;0.80;;;0.80;;
5135;SDS011;2586;48.710;9.202;2023-01-08T09:08:24;2.77;;;1.00;;
5135;SDS011;2586;48.710;9.202;2023-01-08T09:10:50;1.67;;;1.47;;
5135;SDS011;2586;48.710;9.202;2023-01-08T09:13:15;1.37;;;1.13;;
5135;SDS011;2586;48.710;9.202;2023-01-08T09:15:41;1.20;;;1.10;;
5135;SDS011;2586;48.710;9.202;2023-01-08T09:18:06;1.23;;;1.13;;
5135;SDS011;2586;48.710;9.202;2023-01-08T09:20:32;1.27;;;0.83;;
5135;SDS011;2586;48.710;9.202;2023-01-08T09:22:58;3.07;;;1.10;;
5135;SDS011;2586;48.710;9.202;2023-01-08T09:25:25;1.20;;;1.13;;
5135;SDS011;2586;48.710;9.202;2023-01-08T09:27:57;2.50;;;1.53;;
5135;SDS011;2586;48.710;9.202;2023-01-08T09:30:24;1.93;;;1.73;;
5135;SDS011;2586;48.710;9.202;2023-01-08T09:32:49;0.80;;;0.80;;
5135;SDS011;2586;48.710;9.202;2023-01-08T09:35:15;1.50;;;0.80;;
5135;SDS011;2586;48.710;9.202;2023-01-08T09:37:41;0.67;;;0.60;;
5135;SDS011;2586;48.710;9.202;2023-01-08T09:40:08;1.47;;;1.00;;
5135;SDS011;2586;48.710;9.202;2023-01-08T09:42:38;1.33;;;0.80;;
5135;SDS011;2586;48.710;9.202;2023-01-08T09:45:04;0.93;;;0.77;;
5135;SDS011;2586;48.710;9.202;2023-01-08T09:47:35;1.20;;;0.67;;
5135;SDS011;2586;48.710;9.202;2023-01-08T09:50:05;0.60;;;0.60;;
5135;SDS011;2586;48.710;9.202;2023-01-08T09:52:35;6.83;;;1.03;;
5135;SDS011;2586;48.710;9.202;2023-01-08T09:55:02;0.80;;;0.77;;
5135;SDS011;2586;48.710;9.202;2023-01-08T09:57:33;1.43;;;0.50;;
5135;SDS011;2586;48.710;9.202;2023-01-08T09:59:59;3.13;;;1.00;;
5135;SDS011;2586;48.710;9.202;2023-01-08T10:02:25;1.93;;;0.70;;
5135;SDS011;2586;48.710;9.202;2023-01-08T10:04:54;1.53;;;0.60;;
5135;SDS011;2586;48.710;9.202;2023-01-08T10:07:23;1.10;;;0.90;;
5135;SDS011;2586;48.710;9.202;2023-01-08T10:09:53;4.77;;;0.87;;
5135;SDS011;2586;48.710;9.202;2023-01-08T10:12:23;0.70;;;0.70;;
5135;SDS011;2586;48.710;9.202;2023-01-08T10:14:51;0.70;;;0.53;;
5135;SDS011;2586;48.710;9.202;2023-01-08T10:20:23;1.83;;;0.70;;
5135;SDS011;2586;48.710;9.202;2023-01-08T10:22:50;1.23;;;0.60;;
5135;SDS011;2586;48.710;9.202;2023-01-08T10:25:27;0.70;;;0.60;;
5135;SDS011;2586;48.710;9.202;2023-01-08T10:27:56;1.17;;;0.50;;
5135;SDS011;2586;48.710;9.202;2023-01-08T10:32:55;1.03;;;0.60;;
5135;SDS011;2586;48.710;9.202;2023-01-08T10:35:33;0.60;;;0.50;;
5135;SDS011;2586;48.710;9.202;2023-01-08T10:38:02;0.77;;;0.60;;
5135;SDS011;2586;48.710;9.202;2023-01-08T10:40:36;0.47;;;0.47;;
5135;SDS011;2586;48.710;9.202;2023-01-08T10:43:17;1.87;;;0.80;;
5135;SDS011;2586;48.710;9.202;2023-01-08T10:48:45;1.17;;;0.70;;
5135;SDS011;2586;48.710;9.202;2023-01-08T10:51:19;0.80;;;0.80;;
5135;SDS011;2586;48.710;9.202;2023-01-08T10:53:50;0.50;;;0.50;;
5135;SDS011;2586;48.710;9.202;2023-01-08T10:56:27;1.10;;;0.50;;
5135;SDS011;2586;48.710;9.202;2023-01-08T10:58:54;1.07;;;0.60;;
5135;SDS011;2586;48.710;9.202;2023-01-08T11:01:29;0.87;;;0.60;;
5135;SDS011;2586;48.710;9.202;2023-01-08T11:03:57;0.63;;;0.50;;
5135;SDS011;2586;48.710;9.202;2023-01-08T11:06:29;0.80;;;0.60;;
5135;SDS011;2586;48.710;9.202;2023-01-08T11:09:00;0.93;;;0.50;;
5135;SDS011;2586;48.710;9.202;2023-01-08T11:11:31;0.60;;;0.50;;
5135;SDS011;2586;48.710;9.202;2023-01-08T11:14:00;1.00;;;0.53;;
5135;SDS011;2586;48.710;9.202;2023-01-08T11:16:37;1.90;;;0.50;;
5135;SDS011;2586;48.710;9.202;2023-01-08T11:19:12;0.40;;;0.40;;
5135;SDS011;2586;48.710;9.202;2023-01-08T11:21:57;0.50;;;0.40;;
5135;SDS011;2586;48.710;9.202;2023-01-08T11:24:24;0.50;;;0.50;;
5135;SDS011;2586;48.710;9.202;2023-01-08T11:26:52;2.20;;;0.53;;
5135;SDS011;2586;48.710;9.202;2023-01-08T11:29:22;0.60;;;0.50;;
5135;SDS011;2586;48.710;9.202;2023-01-08T11:37:23;0.60;;;0.60;;
5135;SDS011;2586;48.710;9.202;2023-01-08T11:39:52;0.50;;;0.43;;
5135;SDS011;2586;48.710;9.202;2023-01-08T11:42:26;0.40;;;0.40;;
5135;SDS011;2586;48.710;9.202;2023-01-08T11:45:23;12.17;;;8.83;;
5135;SDS011;2586;48.710;9.202;2023-01-08T11:50:34;1.33;;;0.57;;
5135;SDS011;2586;48.710;9.202;2023-01-08T11:53:31;0.90;;;0.40;;
5135;SDS011;2586;48.710;9.202;2023-01-08T11:56:42;0.50;;;0.50;;
5135;SDS011;2586;48.710;9.202;2023-01-08T11:59:23;0.90;;;0.50;;
5135;SDS011;2586;48.710;9.202;2023-01-08T12:02:18;1.83;;;0.47;;
5135;SDS011;2586;48.710;9.202;2023-01-08T12:05:19;0.50;;;0.40;;
5135;SDS011;2586;48.710;9.202;2023-01-08T12:07:59;1.27;;;0.80;;
5135;SDS011;2586;48.710;9.202;2023-01-08T12:22:15;1.77;;;0.60;;
5135;SDS011;2586;48.710;9.202;2023-01-08T12:35:59;0.40;;;0.40;;
5135;SDS011;2586;48.710;9.202;2023-01-08T12:38:34;0.63;;;0.40;;
5135;SDS011;2586;48.710;9.202;2023-01-08T12:41:04;0.60;;;0.40;;
5135;SDS011;2586;48.710;9.202;2023-01-08T12:43:47;1.23;;;0.60;;
5135;SDS011;2586;48.710;9.202;2023-01-08T12:46:23;0.67;;;0.57;;
5135;SDS011;2586;48.710;9.202;2023-01-08T12:48:52;2.97;;;0.50;;
5135;SDS011;2586;48.710;9.202;2023-01-08T12:51:27;0.67;;;0.57;;
5135;SDS011;2586;48.710;9.202;2023-01-08T12:56:54;0.90;;;0.53;;
5135;SDS011;2586;48.710;9.202;2023-01-08T12:59:27;0.50;;;0.40;;
5135;SDS011;2586;48.710;9.202;2023-01-08T13:07:45;1.23;;;0.73;;
5135;SDS011;2586;48.710;9.202;2023-01-08T13:10:33;0.50;;;0.50;;
5135;SDS011;2586;48.710;9.202;2023-01-08T13:13:04;0.50;;;0.40;;
5135;SDS011;2586;48.710;9.202;2023-01-08T13:15:32;0.70;;;0.50;;
5135;SDS011;2586;48.710;9.202;2023-01-08T13:18:15;1.63;;;0.70;;
5135;SDS011;2586;48.710;9.202;2023-01-08T13:20:53;0.70;;;0.60;;
5135;SDS011;2586;48.710;9.202;2023-01-08T13:23:24;0.60;;;0.50;;
5135;SDS011;2586;48.710;9.202;2023-01-08T13:26:00;0.60;;;0.50;;
5135;SDS011;2586;48.710;9.202;2023-01-08T13:30:53;1.10;;;1.10;;
5135;SDS011;2586;48.710;9.202;2023-01-08T13:36:15;0.70;;;0.70;;
5135;SDS011;2586;48.710;9.202;2023-01-08T13:38:45;1.20;;;1.07;;
5135;SDS011;2586;48.710;9.202;2023-01-08T13:41:27;0.60;;;0.60;;
5135;SDS011;2586;48.710;9.202;2023-01-08T13:44:02;0.83;;;0.83;;
5135;SDS011;2586;48.710;9.202;2023-01-08T13:46:41;0.87;;;0.70;;
5135;SDS011;2586;48.710;9.202;2023-01-08T13:49:18;0.90;;;0.70;;
5135;SDS011;2586;48.710;9.202;2023-01-08T13:51:59;1.10;;;0.90;;
5135;SDS011;2586;48.710;9.202;2023-01-08T13:54:38;0.70;;;0.53;;
5135;SDS011;2586;48.710;9.202;2023-01-08T13:57:12;0.73;;;0.73;;
5135;SDS011;2586;48.710;9.202;2023-01-08T13:59:48;1.00;;;0.50;;
5135;SDS011;2586;48.710;9.202;2023-01-08T14:02:22;0.60;;;0.60;;
5135;SDS011;2586;48.710;9.202;2023-01-08T14:04:53;0.93;;;0.60;;
5135;SDS011;2586;48.710;9.202;2023-01-08T14:07:20;2.20;;;1.47;;
5135;SDS011;2586;48.710;9.202;2023-01-08T14:09:47;1.00;;;0.40;;
5135;SDS011;2586;48.710;9.202;2023-01-08T14:12:17;1.17;;;0.50;;
5135;SDS011;2586;48.710;9.202;2023-01-08T14:14:47;0.53;;;0.53;;
5135;SDS011;2586;48.710;9.202;2023-01-08T14:17:17;0.53;;;0.50;;
5135;SDS011;2586;48.710;9.202;2023-01-08T14:19:45;0.60;;;0.50;;
5135;SDS011;2586;48.710;9.202;2023-01-08T14:22:14;0.50;;;0.47;;
5135;SDS011;2586;48.710;9.202;2023-01-08T14:24:47;0.60;;;0.30;;
5135;SDS011;2586;48.710;9.202;2023-01-08T14:27:19;0.43;;;0.33;;
5135;SDS011;2586;48.710;9.202;2023-01-08T14:29:49;1.13;;;0.60;;
5135;SDS011;2586;48.710;9.202;2023-01-08T14:32:17;0.63;;;0.50;;
5135;SDS011;2586;48.710;9.202;2023-01-08T14:34:46;0.50;;;0.50;;
5135;SDS011;2586;48.710;9.202;2023-01-08T14:37:14;1.63;;;0.60;;
5135;SDS011;2586;48.710;9.202;2023-01-08T14:39:40;0.47;;;0.40;;
5135;SDS011;2586;48.710;9.202;2023-01-08T14:42:11;0.50;;;0.47;;
5135;SDS011;2586;48.710;9.202;2023-01-08T14:44:57;0.80;;;0.50;;
5135;SDS011;2586;48.710;9.202;2023-01-08T14:47:33;1.33;;;0.50;;
5135;SDS011;2586;48.710;9.202;2023-01-08T14:50:06;0.40;;;0.40;;
5135;SDS011;2586;48.710;9.202;2023-01-08T14:52:43;0.50;;;0.40;;
5135;SDS011;2586;48.710;9.202;2023-01-08T14:55:12;0.53;;;0.43;;
5135;SDS011;2586;48.710;9.202;2023-01-08T14:57:43;0.50;;;0.40;;
5135;SDS011;2586;48.710;9.202;2023-01-08T15:00:15;0.60;;;0.40;;
5135;SDS011;2586;48.710;9.202;2023-01-08T15:02:46;0.60;;;0.50;;
5135;SDS011;2586;48.710;9.202;2023-01-08T15:05:23;1.27;;;0.40;;
5135;SDS011;2586;48.710;9.202;2023-01-08T15:08:01;0.50;;;0.50;;
5135;SDS011;2586;48.710;9.202;2023-01-08T15:10:56;0.40;;;0.40;;
5135;SDS011;2586;48.710;9.202;2023-01-08T15:13:29;0.83;;;0.70;;
5135;SDS011;2586;48.710;9.202;2023-01-08T15:16:00;0.60;;;0.60;;
5135;SDS011;2586;48.710;9.202;2023-01-08T15:18:43;0.53;;;0.53;;
5135;SDS011;2586;48.710;9.202;2023-01-08T15:21:17;0.93;;;0.83;;
5135;SDS011;2586;48.710;9.202;2023-01-08T15:23:49;1.50;;;1.30;;
5135;SDS011;2586;48.710;9.202;2023-01-08T15:26:18;0.63;;;0.60;;
5135;SDS011;2586;48.710;9.202;2023-01-08T15:28:50;1.07;;;0.90;;
5135;SDS011;2586;48.710;9.202;2023-01-08T15:31:31;0.60;;;0.60;;
5135;SDS011;2586;48.710;9.202;2023-01-08T15:34:08;1.60;;;1.10;;
5135;SDS011;2586;48.710;9.202;2023-01-08T15:36:34;1.30;;;1.07;;
5135;SDS011;2586;48.710;9.202;2023-01-08T15:38:59;0.90;;;0.80;;
5135;SDS011;2586;48.710;9.202;2023-01-08T15:41:32;0.83;;;0.50;;
5135;SDS011;2586;48.710;9.202;2023-01-08T15:44:17;1.90;;;0.60;;
5135;SDS011;2586;48.710;9.202;2023-01-08T15:46:43;1.33;;;0.90;;
5135;SDS011;2586;48.710;9.202;2023-01-08T15:49:08;0.97;;;0.97;;
5135;SDS011;2586;48.710;9.202;2023-01-08T15:51:34;3.33;;;2.00;;
5135;SDS011;2586;48.710;9.202;2023-01-08T15:54:03;3.43;;;3.10;;
5135;SDS011;2586;48.710;9.202;2023-01-08T15:56:28;2.80;;;2.23;;
5135;SDS011;2586;48.710;9.202;2023-01-08T15:58:54;1.50;;;1.40;;
5135;SDS011;2586;48.710;9.202;2023-01-08T16:01:19;2.77;;;1.63;;
5135;SDS011;2586;48.710;9.202;2023-01-08T16:03:45;1.33;;;1.17;;
5135;SDS011;2586;48.710;9.202;2023-01-08T16:06:12;1.20;;;1.10;;
5135;SDS011;2586;48.710;9.202;2023-01-08T16:08:37;1.10;;;0.60;;
5135;SDS011;2586;48.710;9.202;2023-01-08T16:11:03;1.53;;;0.77;;
5135;SDS011;2586;48.710;9.202;2023-01-08T16:13:29;1.17;;;1.10;;
5135;SDS011;2586;48.710;9.202;2023-01-08T16:15:54;16.07;;;11.37;;
5135;SDS011;2586;48.710;9.202;2023-01-08T16:18:20;1.50;;;1.40;;
5135;SDS011;2586;48.710;9.202;2023-01-08T16:20:45;2.60;;;1.50;;
5135;SDS011;2586;48.710;9.202;2023-01-08T16:23:11;9.90;;;0.80;;
5135;SDS011;2586;48.710;9.202;2023-01-08T16:25:39;1.40;;;1.30;;
5135;SDS011;2586;48.710;9.202;2023-01-08T16:28:05;1.10;;;0.97;;
5135;SDS011;2586;48.710;9.202;2023-01-08T16:30:30;0.87;;;0.83;;
5135;SDS011;2586;48.710;9.202;2023-01-08T16:32:56;1.73;;;1.63;;
5135;SDS011;2586;48.710;9.202;2023-01-08T16:35:21;5.57;;;4.53;;